createdAt,value
2019-03-10T00:07:26.607Z,4.80
2019-03-10T00:17:31.423Z,4.78
2019-03-10T00:27:36.340Z,4.71
2019-03-10T00:37:41.450Z,4.69
2019-03-10T00:48:05.243Z,4.69
2019-03-10T00:58:10.203Z,4.72
2019-03-10T01:08:15.168Z,4.84
2019-03-10T01:18:20.729Z,4.97
2019-03-10T01:28:25.607Z,5.04
2019-03-10T01:38:30.468Z,5.13
2019-03-10T01:48:35.336Z,4.99
2019-03-10T01:58:40.167Z,4.80
2019-03-10T02:08:45.123Z,4.73
2019-03-10T02:18:49.967Z,4.68
2019-03-10T02:28:54.833Z,4.42
2019-03-10T02:38:59.823Z,4.35
2019-03-10T02:49:05.131Z,4.38
2019-03-10T02:59:09.989Z,4.23
2019-03-10T03:09:14.865Z,4.17
2019-03-10T03:19:19.722Z,4.18
2019-03-10T03:29:24.663Z,4.19
2019-03-10T03:39:31.914Z,4.14
2019-03-10T03:49:36.753Z,4.07
2019-03-10T03:59:41.617Z,3.85
2019-03-10T04:09:46.452Z,3.73
2019-03-10T04:19:51.421Z,3.91
2019-03-10T04:29:56.272Z,3.89
2019-03-10T04:40:01.124Z,3.83
2019-03-10T04:50:07.779Z,3.86
2019-03-10T05:00:12.844Z,3.80
2019-03-10T05:10:18.729Z,3.75
2019-03-10T05:20:23.608Z,3.76
2019-03-10T05:30:28.498Z,3.68
2019-03-10T05:40:33.377Z,3.58
2019-03-10T05:50:38.242Z,3.66
2019-03-10T06:00:43.455Z,3.70
2019-03-10T06:10:48.591Z,3.64
2019-03-10T06:20:54.456Z,4.16
2019-03-10T06:30:59.328Z,4.95
2019-03-10T06:41:05.224Z,6.09
2019-03-10T06:51:10.157Z,6.86
2019-03-10T07:01:15.079Z,7.01
2019-03-10T07:11:19.978Z,7.76
2019-03-10T07:21:50.362Z,9.12
2019-03-10T07:32:00.298Z,8.03
2019-03-10T07:42:12.478Z,9.46
2019-03-10T07:52:24.903Z,11.78
2019-03-10T08:02:38.443Z,13.95
2019-03-10T08:12:47.751Z,10.81
2019-03-10T08:23:00.412Z,9.88
2019-03-10T08:33:22.008Z,13.38
2019-03-10T08:43:27.711Z,11.54
2019-03-10T08:53:34.150Z,13.52
2019-03-10T09:03:43.623Z,11.62
2019-03-10T09:14:06.385Z,10.85
2019-03-10T09:24:18.846Z,13.10
2019-03-10T09:34:25.755Z,13.10
2019-03-10T09:44:48.323Z,10.99
2019-03-10T09:54:54.789Z,11.31
2019-03-10T10:05:01.430Z,11.19
2019-03-10T10:15:11.688Z,11.35
2019-03-10T10:25:21.636Z,11.12
2019-03-10T10:35:37.381Z,11.99
2019-03-10T10:45:46.949Z,10.25
2019-03-10T10:56:10.019Z,11.74
2019-03-10T11:06:19.563Z,10.92
2019-03-10T11:16:25.827Z,9.91
2019-03-10T11:26:48.772Z,12.64
2019-03-10T11:37:10.507Z,9.76
2019-03-10T11:47:33.546Z,10.86
2019-03-10T11:57:42.163Z,10.73
2019-03-10T12:08:06.216Z,13.06
2019-03-10T12:18:12.129Z,11.34
2019-03-10T12:28:17.647Z,11.13
2019-03-10T12:38:22.813Z,9.77
2019-03-10T12:48:27.671Z,9.66
2019-03-10T12:58:32.508Z,9.51
2019-03-10T13:08:37.464Z,9.71
2019-03-10T13:18:42.576Z,9.23
2019-03-10T13:28:47.443Z,8.76
2019-03-10T13:38:52.296Z,8.40
2019-03-10T13:48:57.328Z,8.41
2019-03-10T13:59:02.157Z,7.94
2019-03-10T14:09:10.001Z,7.61
2019-03-10T14:19:15.083Z,7.50
2019-03-10T14:29:20.029Z,7.24
2019-03-10T14:39:25.004Z,7.09
2019-03-10T14:49:29.884Z,7.03
2019-03-10T14:59:35.015Z,6.75
2019-03-10T15:09:40.113Z,6.33
2019-03-10T15:19:45.178Z,6.22
2019-03-10T15:29:51.188Z,6.07
2019-03-10T15:39:56.380Z,5.81
2019-03-10T15:50:01.472Z,5.79
2019-03-10T16:00:14.581Z,5.75
2019-03-10T16:10:19.741Z,5.87
2019-03-10T16:20:29.459Z,5.78
2019-03-10T16:30:35.244Z,5.84
2019-03-10T16:40:40.541Z,5.83
2019-03-10T16:50:45.628Z,5.64
2019-03-10T17:00:51.641Z,5.63
2019-03-10T17:10:56.712Z,5.57
2019-03-10T17:21:01.833Z,5.54
2019-03-10T17:31:07.079Z,5.60
2019-03-10T17:41:12.160Z,5.60
2019-03-10T17:51:17.244Z,5.48
2019-03-10T18:01:22.247Z,5.44
2019-03-10T18:11:27.619Z,5.46
2019-03-10T18:21:32.938Z,5.38
2019-03-10T18:31:38.240Z,5.41
2019-03-10T18:41:43.586Z,5.52
2019-03-10T18:51:48.804Z,5.53
2019-03-10T19:01:54.472Z,5.60
2019-03-10T19:11:59.680Z,5.64
2019-03-10T19:22:06.565Z,5.59
2019-03-10T19:32:12.211Z,5.63
2019-03-10T19:42:18.944Z,5.61
2019-03-10T19:52:25.078Z,5.64
2019-03-10T20:02:30.215Z,5.69
2019-03-10T20:12:35.337Z,5.77
2019-03-10T20:22:41.430Z,6.08
2019-03-10T20:32:46.494Z,6.24
2019-03-10T20:42:51.570Z,6.45
2019-03-10T20:52:56.442Z,6.39
2019-03-10T21:03:01.507Z,6.58
2019-03-10T21:13:07.157Z,6.74
2019-03-10T21:23:13.473Z,7.10
2019-03-10T21:33:18.443Z,7.33
2019-03-10T21:43:23.494Z,7.54
2019-03-10T21:53:28.426Z,7.50
2019-03-10T22:03:33.277Z,7.41
2019-03-10T22:13:46.322Z,7.45
2019-03-10T22:23:44.698Z,7.40
2019-03-10T22:33:49.530Z,7.42
2019-03-10T22:43:54.392Z,7.57
2019-03-10T22:53:59.281Z,7.82
2019-03-10T23:04:04.928Z,7.82
2019-03-10T23:14:09.782Z,7.94
2019-03-10T23:24:14.641Z,7.67
2019-03-10T23:34:19.504Z,7.82
2019-03-10T23:44:24.351Z,7.69
2019-03-10T23:54:29.213Z,7.67
